createdAt,value
2022-12-28T00:02:20.047Z,3.113098
2022-12-28T00:05:45.211Z,3.002319
2022-12-28T00:09:10.420Z,2.962036
2022-12-28T00:12:35.710Z,2.901611
2022-12-28T00:16:00.940Z,2.851257
2022-12-28T00:19:26.112Z,2.891541
2022-12-28T00:22:51.402Z,2.851257
2022-12-28T00:26:16.632Z,2.770691
2022-12-28T00:29:41.893Z,2.720337
2022-12-28T00:33:07.107Z,2.710266
2022-12-28T00:37:07.934Z,2.609558
2022-12-28T00:39:57.569Z,2.720337
2022-12-28T00:43:22.828Z,2.710266
2022-12-28T00:46:48.092Z,2.720337
2022-12-28T00:50:13.294Z,2.690125
2022-12-28T00:53:38.472Z,2.720337
2022-12-28T00:57:03.695Z,2.770691
2022-12-28T01:00:28.917Z,2.669983
2022-12-28T01:03:54.160Z,2.599487
2022-12-28T01:07:19.353Z,2.6297
2022-12-28T01:10:44.606Z,2.599487
2022-12-28T01:14:09.804Z,2.589417
2022-12-28T01:17:35.016Z,2.659912
2022-12-28T01:21:00.219Z,2.740479
2022-12-28T01:24:25.383Z,2.750549
2022-12-28T01:27:50.615Z,2.821045
2022-12-28T01:31:15.814Z,2.951965
2022-12-28T01:34:41.029Z,2.901611
2022-12-28T01:38:06.243Z,2.720337
2022-12-28T01:41:31.444Z,2.669983
2022-12-28T01:44:56.679Z,2.569275
2022-12-28T01:48:21.913Z,2.539062
2022-12-28T01:51:47.139Z,2.478638
2022-12-28T01:55:12.376Z,2.347717
2022-12-28T01:58:37.545Z,2.388
2022-12-28T02:02:02.924Z,2.357788
2022-12-28T02:05:28.004Z,2.37793
2022-12-28T02:08:53.226Z,2.297363
2022-12-28T02:12:18.471Z,2.226868
2022-12-28T02:15:43.686Z,2.267151
2022-12-28T02:19:08.927Z,2.236938
2022-12-28T02:22:34.156Z,2.277222
2022-12-28T02:25:59.356Z,2.206726
2022-12-28T02:29:24.607Z,2.236938
2022-12-28T02:32:49.809Z,2.277222
2022-12-28T02:36:18.452Z,2.206726
2022-12-28T02:39:40.233Z,2.166443
2022-12-28T02:43:05.411Z,2.307434
2022-12-28T02:46:30.696Z,2.357788
2022-12-28T02:49:55.870Z,2.388
2022-12-28T02:53:21.089Z,2.357788
2022-12-28T02:56:46.349Z,2.357788
2022-12-28T03:00:11.591Z,2.347717
2022-12-28T03:03:36.822Z,2.428284
2022-12-28T03:07:02.042Z,2.528992
2022-12-28T03:10:27.310Z,2.569275
2022-12-28T03:13:52.545Z,2.539062
2022-12-28T03:17:17.744Z,2.569275
2022-12-28T03:20:43.013Z,2.528992
2022-12-28T03:24:08.180Z,2.539062
2022-12-28T03:27:33.378Z,2.539062
2022-12-28T03:30:58.684Z,2.589417
2022-12-28T03:34:23.800Z,2.559204
2022-12-28T03:37:49.059Z,2.6297
2022-12-28T03:41:14.232Z,2.559204
2022-12-28T03:44:39.477Z,2.478638
2022-12-28T03:48:04.672Z,2.478638
2022-12-28T03:51:29.936Z,2.418213
2022-12-28T03:54:55.166Z,2.448425
2022-12-28T03:58:20.373Z,2.478638
2022-12-28T04:01:45.700Z,2.559204
2022-12-28T04:05:10.798Z,2.458496
2022-12-28T04:08:36.027Z,2.408142
2022-12-28T04:12:01.269Z,2.478638
2022-12-28T04:15:26.496Z,2.448425
2022-12-28T04:18:51.686Z,2.559204
2022-12-28T04:22:16.915Z,2.6297
2022-12-28T04:25:42.167Z,2.599487
2022-12-28T04:29:07.402Z,2.599487
2022-12-28T04:32:32.640Z,2.559204
2022-12-28T04:35:57.878Z,2.599487
2022-12-28T04:39:23.120Z,2.639771
2022-12-28T04:42:48.348Z,2.6297
2022-12-28T04:46:13.649Z,2.669983
2022-12-28T04:49:38.771Z,2.690125
2022-12-28T04:53:04.012Z,2.720337
2022-12-28T04:56:29.249Z,2.750549
2022-12-28T04:59:54.474Z,2.710266
2022-12-28T05:03:19.707Z,2.690125
2022-12-28T05:06:44.940Z,2.669983
2022-12-28T05:10:10.141Z,2.589417
2022-12-28T05:13:35.416Z,2.458496
2022-12-28T05:17:00.639Z,2.448425
2022-12-28T05:20:25.921Z,2.428284
2022-12-28T05:23:51.077Z,2.458496
2022-12-28T05:27:16.280Z,2.609558
2022-12-28T05:30:41.532Z,2.690125
2022-12-28T05:34:06.752Z,2.669983
2022-12-28T05:37:31.971Z,2.569275
2022-12-28T05:40:57.155Z,2.559204
2022-12-28T05:44:22.320Z,2.478638
2022-12-28T05:47:47.506Z,2.428284
2022-12-28T05:51:12.903Z,2.428284
2022-12-28T05:54:38.133Z,2.408142
2022-12-28T05:58:03.335Z,2.428284
2022-12-28T06:01:28.644Z,2.528992
2022-12-28T06:04:53.778Z,2.539062
2022-12-28T06:08:22.620Z,2.539062
2022-12-28T06:11:44.196Z,2.639771
2022-12-28T06:15:09.360Z,2.639771
2022-12-28T06:18:34.541Z,2.710266
2022-12-28T06:21:59.732Z,2.841187
2022-12-28T06:25:24.921Z,2.821045
2022-12-28T06:28:50.115Z,2.871399
2022-12-28T06:32:15.464Z,2.891541
2022-12-28T06:35:40.660Z,2.951965
2022-12-28T06:39:05.813Z,2.891541
2022-12-28T06:42:30.985Z,2.770691
2022-12-28T06:45:56.229Z,2.740479
2022-12-28T06:49:21.352Z,2.821045
2022-12-28T06:52:46.523Z,2.851257
2022-12-28T06:56:11.716Z,2.962036
2022-12-28T06:59:36.917Z,3.052673
2022-12-28T07:03:02.287Z,3.082886
2022-12-28T07:06:27.433Z,3.203735
2022-12-28T07:09:52.639Z,3.233948
2022-12-28T07:13:18.561Z,3.354797
2022-12-28T07:20:00.061Z,3.415222
2022-12-28T07:23:25.179Z,3.244019
2022-12-28T07:26:50.503Z,3.284302
2022-12-28T07:30:15.888Z,3.26416
2022-12-28T07:33:41.231Z,3.233948
2022-12-28T07:37:06.561Z,3.294373
2022-12-28T07:40:31.727Z,3.294373
2022-12-28T07:43:57.171Z,3.415222
2022-12-28T07:47:22.618Z,3.425293
2022-12-28T07:50:47.914Z,3.536072
2022-12-28T07:54:13.179Z,3.656921
2022-12-28T07:57:37.336Z,3.687134
2022-12-28T08:00:54.381Z,3.747559
2022-12-28T08:04:19.681Z,3.697205
2022-12-28T08:07:44.851Z,3.697205
2022-12-28T08:11:10.239Z,3.727417
2022-12-28T08:14:35.389Z,3.838196
2022-12-28T08:18:00.579Z,3.828125
2022-12-28T08:21:25.940Z,3.838196
2022-12-28T08:24:51.400Z,3.908691
2022-12-28T08:28:16.685Z,3.969116
2022-12-28T08:31:42.012Z,3.969116
2022-12-28T08:35:07.282Z,4.01947
2022-12-28T08:38:32.562Z,4.079895
2022-12-28T08:41:57.772Z,4.110107
2022-12-28T08:45:23.035Z,4.180603
2022-12-28T08:48:48.255Z,4.230957
2022-12-28T08:52:13.512Z,4.230957
2022-12-28T08:55:38.760Z,4.331665
2022-12-28T08:59:04.079Z,4.301453
2022-12-28T09:02:30.096Z,4.371948
2022-12-28T09:05:55.183Z,4.412231
2022-12-28T09:09:20.445Z,4.361877
2022-12-28T09:12:45.767Z,4.371948
2022-12-28T09:16:11.147Z,4.341736
2022-12-28T09:19:36.425Z,4.412231
2022-12-28T09:23:01.740Z,4.442444
2022-12-28T09:26:27.018Z,4.502869
2022-12-28T09:29:52.282Z,4.583435
2022-12-28T09:33:17.578Z,4.603577
2022-12-28T09:36:43.020Z,4.653931
2022-12-28T09:40:08.280Z,4.724426
2022-12-28T09:43:33.564Z,4.734497
2022-12-28T09:46:58.822Z,4.724426
2022-12-28T09:50:23.957Z,4.674072
2022-12-28T09:53:49.154Z,4.724426
2022-12-28T09:57:14.345Z,4.915771
2022-12-28T10:00:39.560Z,4.935913
2022-12-28T10:04:04.743Z,4.915771
2022-12-28T10:07:29.973Z,5.02655
2022-12-28T10:10:55.242Z,5.056763
2022-12-28T10:14:20.433Z,5.086975
2022-12-28T10:17:46.160Z,5.1474
2022-12-28T10:21:11.421Z,5.248108
2022-12-28T10:24:36.611Z,5.238037
2022-12-28T10:28:01.805Z,5.328674
2022-12-28T10:31:27.056Z,5.449524
2022-12-28T10:34:52.284Z,5.449524
2022-12-28T10:38:17.694Z,5.308533
2022-12-28T10:41:42.996Z,5.298462
2022-12-28T10:45:08.311Z,5.27832
2022-12-28T10:48:34.011Z,5.489807
2022-12-28T10:51:59.194Z,5.53009
2022-12-28T10:55:24.494Z,5.39917
2022-12-28T10:58:49.949Z,5.419312
2022-12-28T11:02:15.493Z,5.560303
2022-12-28T11:05:40.576Z,5.600586
2022-12-28T11:09:05.908Z,5.580444
2022-12-28T11:12:31.196Z,5.580444
2022-12-28T11:15:56.535Z,5.681152
2022-12-28T11:19:21.753Z,5.741577
2022-12-28T11:22:46.892Z,5.78186
2022-12-28T11:26:12.291Z,5.791931
2022-12-28T11:29:37.611Z,5.892639
2022-12-28T11:33:02.844Z,5.993347
2022-12-28T11:36:28.134Z,6.043701
2022-12-28T11:39:53.438Z,6.063843
2022-12-28T11:43:18.721Z,6.114197
2022-12-28T11:46:44.014Z,6.184692
2022-12-28T11:50:09.294Z,6.174622
2022-12-28T11:53:34.567Z,6.144409
2022-12-28T11:56:59.881Z,6.144409
2022-12-28T12:00:25.350Z,6.214905
2022-12-28T12:03:50.910Z,6.144409
2022-12-28T12:07:16.189Z,6.124268
2022-12-28T12:10:41.843Z,6.083984
2022-12-28T12:14:07.110Z,5.90271
2022-12-28T12:17:33.969Z,5.832214
2022-12-28T12:20:57.941Z,5.862427
2022-12-28T12:24:23.241Z,5.942993
2022-12-28T12:27:48.606Z,5.932922
2022-12-28T12:31:13.863Z,6.003418
2022-12-28T12:34:39.366Z,6.144409
2022-12-28T12:38:04.745Z,6.15448
2022-12-28T12:41:30.065Z,6.194763
2022-12-28T12:44:55.579Z,6.184692
2022-12-28T12:48:20.801Z,6.184692
2022-12-28T12:51:46.092Z,6.03363
2022-12-28T12:55:11.396Z,5.993347
2022-12-28T12:58:36.649Z,5.993347
2022-12-28T13:02:02.020Z,5.973206
2022-12-28T13:05:27.236Z,5.973206
2022-12-28T13:08:52.462Z,6.003418
2022-12-28T13:12:17.710Z,6.063843
2022-12-28T13:15:42.996Z,6.03363
2022-12-28T13:19:08.397Z,6.124268
2022-12-28T13:22:33.505Z,6.265259
2022-12-28T13:25:58.851Z,6.224976
2022-12-28T13:29:24.109Z,6.325684
2022-12-28T13:32:49.378Z,6.245117
2022-12-28T13:36:14.653Z,6.144409
2022-12-28T13:39:42.271Z,6.124268
2022-12-28T13:43:05.228Z,6.063843
2022-12-28T13:46:30.527Z,6.013489
2022-12-28T13:49:55.793Z,6.043701
2022-12-28T13:53:21.178Z,5.993347
2022-12-28T13:56:46.458Z,5.973206
2022-12-28T14:00:11.675Z,5.973206
2022-12-28T14:03:40.029Z,5.942993
2022-12-28T14:07:02.069Z,5.993347
2022-12-28T14:10:27.335Z,6.03363
2022-12-28T14:13:52.822Z,6.124268
2022-12-28T14:17:18.068Z,6.194763
2022-12-28T14:20:43.423Z,6.144409
2022-12-28T14:24:08.732Z,6.094055
2022-12-28T14:27:36.350Z,6.174622
2022-12-28T15:04:38.414Z,6.03363
2022-12-28T15:08:03.613Z,6.013489
2022-12-28T15:11:28.805Z,6.003418
2022-12-28T15:14:54.056Z,5.942993
2022-12-28T15:18:19.181Z,5.942993
2022-12-28T15:21:44.358Z,5.90271
2022-12-28T15:25:09.587Z,5.892639
2022-12-28T15:28:34.746Z,5.993347
2022-12-28T15:32:00.027Z,5.993347
2022-12-28T15:35:25.645Z,6.03363
2022-12-28T15:38:51.214Z,6.003418
2022-12-28T15:42:16.695Z,5.993347
2022-12-28T15:45:41.957Z,6.03363
2022-12-28T15:49:07.275Z,6.094055
2022-12-28T15:52:33.071Z,6.063843
2022-12-28T15:55:58.345Z,6.043701
2022-12-28T15:59:23.801Z,6.043701
2022-12-28T16:02:49.478Z,6.063843
2022-12-28T16:06:15.588Z,6.003418
2022-12-28T16:09:40.843Z,5.993347
2022-12-28T16:13:06.633Z,6.063843
2022-12-28T16:16:32.353Z,6.003418
2022-12-28T16:19:57.551Z,6.013489
2022-12-28T16:23:22.817Z,6.043701
2022-12-28T16:26:48.450Z,6.083984
2022-12-28T16:30:13.816Z,6.124268
2022-12-28T16:33:38.995Z,6.114197
2022-12-28T16:37:04.314Z,6.174622
2022-12-28T16:40:30.455Z,6.094055
2022-12-28T16:43:55.674Z,6.043701
2022-12-28T16:47:21.041Z,6.013489
2022-12-28T16:50:46.621Z,5.973206
2022-12-28T16:54:12.076Z,6.013489
2022-12-28T16:57:37.422Z,6.063843
2022-12-28T17:01:02.826Z,6.003418
2022-12-28T17:04:28.030Z,6.003418
2022-12-28T17:07:53.615Z,5.973206
2022-12-28T17:11:18.886Z,6.03363
2022-12-28T17:14:44.177Z,5.973206
2022-12-28T17:18:10.275Z,5.973206
2022-12-28T17:21:38.808Z,5.942993
2022-12-28T17:25:04.235Z,5.932922
2022-12-28T17:28:29.511Z,5.932922
2022-12-28T17:31:54.886Z,5.912781
2022-12-28T17:35:20.139Z,5.912781
2022-12-28T17:38:45.521Z,5.912781
2022-12-28T17:42:12.119Z,5.932922
2022-12-28T17:45:37.721Z,5.942993
2022-12-28T17:49:02.924Z,5.892639
2022-12-28T17:52:28.298Z,5.852356
2022-12-28T17:55:53.700Z,5.862427
2022-12-28T17:59:19.000Z,5.892639
2022-12-28T18:02:44.702Z,5.892639
2022-12-28T18:06:10.000Z,5.942993
2022-12-28T18:09:35.254Z,5.993347
2022-12-28T18:13:00.627Z,6.043701
2022-12-28T18:16:25.986Z,6.013489
2022-12-28T18:19:51.232Z,6.063843
2022-12-28T18:23:16.440Z,6.144409
2022-12-28T18:26:41.793Z,6.144409
2022-12-28T18:30:07.352Z,6.063843
2022-12-28T18:33:32.807Z,6.144409
2022-12-28T18:36:58.378Z,6.214905
2022-12-28T18:40:23.765Z,6.214905
2022-12-28T18:43:49.055Z,6.245117
2022-12-28T18:47:14.445Z,6.224976
2022-12-28T18:50:39.672Z,6.27533
2022-12-28T18:54:04.924Z,6.325684
2022-12-28T18:57:30.346Z,6.224976
2022-12-28T19:00:55.630Z,6.174622
2022-12-28T19:04:21.220Z,6.194763
2022-12-28T19:07:49.394Z,6.245117
2022-12-28T19:11:11.520Z,6.295471
2022-12-28T19:14:36.841Z,6.265259
2022-12-28T19:18:02.150Z,6.265259
2022-12-28T19:21:27.486Z,6.265259
2022-12-28T19:24:53.036Z,6.27533
2022-12-28T19:28:18.306Z,6.305542
2022-12-28T19:31:43.614Z,6.305542
2022-12-28T19:35:08.794Z,6.376038
2022-12-28T19:38:34.085Z,6.365967
2022-12-28T19:41:59.495Z,6.295471
2022-12-28T19:45:24.997Z,6.265259
2022-12-28T19:48:50.308Z,6.305542
2022-12-28T19:52:15.592Z,6.355896
2022-12-28T19:55:41.100Z,6.365967
2022-12-28T19:59:07.332Z,6.325684
2022-12-28T20:02:32.142Z,6.305542
2022-12-28T20:05:57.789Z,6.27533
2022-12-28T20:09:23.076Z,6.194763
2022-12-28T20:12:48.383Z,6.174622
2022-12-28T20:16:13.689Z,6.15448
2022-12-28T20:19:38.903Z,6.174622
2022-12-28T20:23:04.218Z,6.094055
2022-12-28T20:26:29.543Z,6.094055
2022-12-28T20:29:54.829Z,6.083984
2022-12-28T20:33:20.118Z,5.973206
2022-12-28T20:36:45.513Z,5.993347
2022-12-28T20:40:10.734Z,5.932922
2022-12-28T20:43:35.995Z,5.852356
2022-12-28T20:47:01.330Z,5.791931
2022-12-28T20:50:26.544Z,5.78186
2022-12-28T20:53:52.137Z,5.711365
2022-12-28T20:57:17.470Z,5.65094
2022-12-28T21:00:42.828Z,5.671082
2022-12-28T21:04:08.301Z,5.65094
2022-12-28T21:07:33.429Z,5.741577
2022-12-28T21:10:58.672Z,5.640869
2022-12-28T21:14:23.865Z,5.711365
2022-12-28T21:17:49.167Z,5.65094
2022-12-28T21:21:14.668Z,5.711365
2022-12-28T21:24:39.913Z,5.681152
2022-12-28T21:28:05.207Z,5.711365
2022-12-28T21:31:30.749Z,5.711365
2022-12-28T21:34:55.833Z,5.721436
2022-12-28T21:38:21.171Z,5.741577
2022-12-28T21:41:46.426Z,5.791931
2022-12-28T21:45:11.787Z,5.78186
2022-12-28T21:48:37.025Z,5.761719
2022-12-28T21:52:02.364Z,5.791931
2022-12-28T21:55:27.726Z,5.812073
2022-12-28T21:58:52.983Z,5.741577
2022-12-28T22:02:18.409Z,5.78186
2022-12-28T22:05:43.587Z,5.791931
2022-12-28T22:09:08.817Z,5.832214
2022-12-28T22:12:34.109Z,5.892639
2022-12-28T22:15:59.331Z,5.862427
2022-12-28T22:19:24.564Z,5.932922
2022-12-28T22:22:49.802Z,5.932922
2022-12-28T22:26:15.051Z,5.993347
2022-12-28T22:29:40.315Z,6.003418
2022-12-28T22:33:05.542Z,6.03363
2022-12-28T22:36:30.767Z,6.013489
2022-12-28T22:39:55.980Z,6.003418
2022-12-28T22:43:21.229Z,5.963135
2022-12-28T22:46:46.576Z,6.013489
2022-12-28T22:50:11.673Z,6.013489
2022-12-28T22:53:36.895Z,6.013489
2022-12-28T22:57:02.141Z,6.03363
2022-12-28T23:00:27.385Z,6.003418
2022-12-28T23:03:52.666Z,5.993347
2022-12-28T23:07:17.895Z,5.963135
2022-12-28T23:10:43.148Z,5.942993
2022-12-28T23:14:08.371Z,5.912781
2022-12-28T23:17:33.632Z,5.791931
2022-12-28T23:20:59.572Z,5.791931
2022-12-28T23:24:24.798Z,5.741577
2022-12-28T23:27:50.046Z,5.711365
2022-12-28T23:31:15.333Z,5.610657
2022-12-28T23:34:40.521Z,5.600586
2022-12-28T23:38:05.779Z,5.610657
2022-12-28T23:41:31.005Z,5.610657
2022-12-28T23:44:56.245Z,5.610657
2022-12-28T23:48:21.517Z,5.570374
2022-12-28T23:51:46.760Z,5.570374
2022-12-28T23:55:12.060Z,5.570374
2022-12-28T23:58:37.269Z,5.509949
